Time;durP1;ratioP1;P1;durP2;ratioP2;P2;SDS_P1;SDS_P2;PMS_P1;PMS_P2;Temp;Humidity;BMP_temperature;BMP_pressure;BME280_temperature;BME280_humidity;BME280_pressure;Samples;Min_cycle;Max_cycle;Signal;HPM_P1;HPM_P2
2022/11/12 00:06:58;;;;;;;;;;;;;;;;;;;;;
2022/11/12 00:09:27;;;;;;;0.00;0.00;;;;;;;11.00;100.00;101505.16;6265212;23;20000;-77
2022/11/12 00:12:43;;;;;;;0.00;0.00;;;;;;;10.96;100.00;101501.25;6265928;22;20004;-78
2022/11/12 00:15:18;;;;;;;0.00;0.00;;;;;;;10.98;100.00;101504.59;6277346;22;19992;-76
2022/11/12 00:17:59;;;;;;;0.00;0.00;;;;;;;11.02;100.00;101504.09;6270954;22;20034;-76
2022/11/12 00:20:25;;;;;;;0.00;0.00;;;;;;;11.08;100.00;101503.13;6265707;22;19995;-77
2022/11/12 00:22:50;;;;;;;0.00;0.00;;;;;;;10.97;100.00;101494.72;6235823;22;19996;-76
2022/11/12 00:25:18;;;;;;;0.00;0.00;;;;;;;10.95;100.00;101488.66;6262007;22;20018;-74
2022/11/12 00:27:44;;;;;;;0.00;0.00;;;;;;;10.97;100.00;101500.19;6259066;22;19996;-76
2022/11/12 00:30:10;;;;;;;0.00;0.00;;;;;;;10.97;100.00;101486.50;6285331;22;20451;-73
2022/11/12 00:32:36;;;;;;;0.00;0.00;;;;;;;11.03;100.00;101500.31;6266375;22;20381;-75
2022/11/12 00:35:06;;;;;;;0.00;0.00;;;;;;;11.02;100.00;101504.91;6259946;22;20007;-75
2022/11/12 00:37:32;;;;;;;0.00;0.00;;;;;;;11.04;100.00;101497.31;6260331;22;20080;-74
2022/11/12 00:39:57;;;;;;;0.00;0.00;;;;;;;11.03;100.00;101489.34;6285398;22;20007;-75
2022/11/12 00:42:25;;;;;;;0.00;0.00;;;;;;;11.06;100.00;101488.88;6235251;22;20000;-76
2022/11/12 00:44:51;;;;;;;0.00;0.00;;;;;;;11.05;100.00;101495.41;6286922;22;20004;-75
2022/11/12 00:47:17;;;;;;;0.00;0.00;;;;;;;10.94;100.00;101486.97;6235353;22;20106;-76
2022/11/12 00:50:06;;;;;;;0.08;0.08;;;;;;;10.93;100.00;101496.25;6239417;22;20018;-78
2022/11/12 00:52:34;;;;;;;0.00;0.00;;;;;;;10.94;100.00;101492.47;6242855;22;20029;-78
2022/11/12 00:54:59;;;;;;;0.00;0.00;;;;;;;11.10;100.00;101495.53;6239890;22;20334;-78
2022/11/12 00:57:27;;;;;;;0.00;0.00;;;;;;;11.14;100.00;101480.25;6260922;22;20004;-74
2022/11/12 00:59:52;;;;;;;0.00;0.00;;;;;;;11.22;100.00;101482.59;6235863;22;20065;-75
2022/11/12 01:02:19;;;;;;;0.00;0.00;;;;;;;11.33;100.00;101489.94;6231732;22;20265;-75
2022/11/12 01:04:45;;;;;;;0.00;0.00;;;;;;;11.40;100.00;101486.22;6236874;22;20022;-74
2022/11/12 01:07:10;;;;;;;0.00;0.00;;;;;;;11.45;100.00;101480.84;6228865;22;20557;-75
2022/11/12 01:09:38;;;;;;;0.00;0.00;;;;;;;11.48;100.00;101475.69;6208753;23;20008;-73
2022/11/12 01:12:03;;;;;;;0.00;0.00;;;;;;;11.43;100.00;101470.09;6204448;23;20007;-75
2022/11/12 01:14:29;;;;;;;0.00;0.00;;;;;;;11.46;100.00;101471.53;6235064;23;20055;-75
2022/11/12 01:16:54;;;;;;;0.00;0.00;;;;;;;11.52;100.00;101473.28;6231644;23;20004;-75
2022/11/12 01:19:22;;;;;;;0.00;0.00;;;;;;;11.54;100.00;101468.41;6254957;23;20000;-75
2022/11/12 01:21:48;;;;;;;0.00;0.00;;;;;;;11.57;100.00;101462.44;6230674;23;20012;-74
2022/11/12 01:24:13;;;;;;;0.00;0.00;;;;;;;11.58;100.00;101464.09;6204641;23;20027;-76
2022/11/12 01:26:39;;;;;;;0.00;0.00;;;;;;;11.61;100.00;101468.22;6205672;23;20012;-76
2022/11/12 01:29:05;;;;;;;0.00;0.00;;;;;;;11.62;100.00;101465.25;6206299;23;20008;-75
2022/11/12 01:31:33;;;;;;;0.00;0.00;;;;;;;11.57;100.00;101461.59;6203085;23;20010;-76
2022/11/12 01:34:01;;;;;;;0.00;0.00;;;;;;;11.52;100.00;101459.56;6232118;23;20000;-75
2022/11/12 01:36:30;;;;;;;0.00;0.00;;;;;;;11.52;100.00;101459.56;6225200;23;20403;-75
2022/11/12 01:38:58;;;;;;;0.00;0.00;;;;;;;11.45;100.00;101454.28;6230942;23;20032;-75
2022/11/12 01:41:26;;;;;;;0.00;0.00;;;;;;;11.45;100.00;101448.78;6253118;23;20060;-76
2022/11/12 01:44:29;;;;;;;0.00;0.00;;;;;;;11.23;100.00;101454.16;6230129;23;20003;-76
2022/11/12 01:47:10;;;;;;;0.00;0.00;;;;;;;10.94;100.00;101451.41;6180627;23;20195;-76
2022/11/12 01:49:53;;;;;;;0.00;0.00;;;;;;;10.84;100.00;101448.47;6231386;23;20060;-75
2022/11/12 01:52:49;;;;;;;0.00;0.00;;;;;;;10.75;100.00;101447.19;6227836;23;20031;-76
2022/11/12 01:55:21;;;;;;;0.00;0.00;;;;;;;10.71;100.00;101448.75;6223638;23;20063;-77
2022/11/12 01:58:10;;;;;;;0.00;0.00;;;;;;;10.71;100.00;101446.84;6225488;23;20015;-76
2022/11/12 02:00:36;;;;;;;0.00;0.00;;;;;;;10.82;100.00;101453.38;6222695;23;20015;-78
2022/11/12 02:03:08;;;;;;;0.00;0.00;;;;;;;10.89;100.00;101442.25;6228284;23;20000;-76
2022/11/12 02:05:43;;;;;;;0.00;0.00;;;;;;;10.94;100.00;101443.19;6248935;23;20004;-76
2022/11/12 02:08:11;;;;;;;0.00;0.00;;;;;;;10.98;100.00;101438.91;6249269;22;20038;-75
2022/11/12 02:10:38;;;;;;;0.00;0.00;;;;;;;11.08;100.00;101437.44;6253442;22;20011;-76
2022/11/12 02:15:49;;;;;;;0.00;0.00;;;;;;;11.10;100.00;101440.78;6257876;22;20051;-76
2022/11/12 02:18:15;;;;;;;0.00;0.00;;;;;;;11.05;100.00;101429.72;6253607;22;20016;-75
2022/11/12 02:20:40;;;;;;;0.00;0.00;;;;;;;11.06;100.00;101434.13;6250855;22;20011;-74
2022/11/12 02:23:07;;;;;;;0.00;0.00;;;;;;;11.04;100.00;101425.31;6230605;22;20012;-76
2022/11/12 02:25:34;;;;;;;0.00;0.00;;;;;;;10.99;100.00;101424.16;6280264;22;19996;-76
2022/11/12 02:28:01;;;;;;;0.00;0.00;;;;;;;10.76;100.00;101418.75;6226329;22;20181;-77
2022/11/12 02:30:33;;;;;;;0.00;0.00;;;;;;;10.51;100.00;101416.31;6254580;22;20010;-75
2022/11/12 02:32:58;;;;;;;0.00;0.00;;;;;;;10.30;100.00;101416.69;6242905;22;20008;-75
2022/11/12 02:35:27;;;;;;;0.00;0.00;;;;;;;10.18;100.00;101415.88;6254379;22;19999;-76
2022/11/12 02:37:52;;;;;;;0.00;0.00;;;;;;;10.05;100.00;101416.13;6203497;22;20007;-76
2022/11/12 02:40:18;;;;;;;0.00;0.00;;;;;;;9.88;100.00;101408.63;6201371;22;20015;-75
2022/11/12 02:42:43;;;;;;;0.00;0.00;;;;;;;9.77;100.00;101407.56;6281762;22;20334;-75
2022/11/12 02:45:09;;;;;;;0.00;0.00;;;;;;;9.62;100.00;101404.44;6249845;22;20306;-73
2022/11/12 02:47:35;;;;;;;0.00;0.00;;;;;;;9.50;100.00;101404.44;6258420;22;20030;-76
2022/11/12 02:50:00;;;;;;;0.00;0.00;;;;;;;9.40;100.00;101413.22;6204171;22;20027;-75
2022/11/12 02:52:28;;;;;;;0.00;0.00;;;;;;;9.31;100.00;101408.31;6229246;22;20079;-76
2022/11/12 02:54:54;;;;;;;0.00;0.00;;;;;;;9.24;100.00;101397.50;6253325;22;20082;-76
2022/11/12 02:57:29;;;;;;;0.00;0.00;;;;;;;9.15;100.00;101394.25;6244540;22;20018;-74
2022/11/12 03:00:07;;;;;;;0.00;0.00;;;;;;;9.09;100.00;101389.75;6275903;22;20413;-74
2022/11/12 03:02:32;;;;;;;0.00;0.00;;;;;;;9.15;100.00;101391.53;6275835;22;20047;-74
2022/11/12 03:04:58;;;;;;;0.00;0.00;;;;;;;9.14;100.00;101387.16;6267125;22;20012;-76
2022/11/12 03:14:46;;;;;;;0.00;0.00;;;;;;;9.11;100.00;101403.97;6196869;23;20084;-74
2022/11/12 03:17:14;;;;;;;0.00;0.00;;;;;;;9.15;100.00;101402.44;6185737;23;20008;-73
2022/11/12 03:19:55;;;;;;;;;;;;;;;;;;;;;
2022/11/12 03:22:20;;;;;;;0.00;0.00;;;;;;;9.16;100.00;101387.75;6144344;23;20043;-75
2022/11/12 03:24:46;;;;;;;0.00;0.00;;;;;;;9.28;100.00;101386.94;6162946;23;20009;-75
2022/11/12 03:27:11;;;;;;;0.00;0.00;;;;;;;9.38;100.00;101387.22;6223415;22;20011;-75
2022/11/12 03:29:37;;;;;;;0.00;0.00;;;;;;;9.38;100.00;101388.03;6201479;22;20011;-75
2022/11/12 03:35:12;;;;;;;0.00;0.00;;;;;;;9.58;100.00;101387.72;6242037;22;20449;-75
2022/11/12 03:37:38;;;;;;;0.00;0.00;;;;;;;9.71;100.00;101391.28;6222120;23;20058;-75
2022/11/12 03:40:05;;;;;;;0.00;0.00;;;;;;;9.84;100.00;101401.13;6198396;23;20012;-76
2022/11/12 03:42:33;;;;;;;0.00;0.00;;;;;;;9.98;100.00;101396.28;6250084;23;20058;-74
2022/11/12 03:44:58;;;;;;;0.00;0.00;;;;;;;10.10;100.00;101394.34;6242201;23;20082;-75
2022/11/12 03:47:24;;;;;;;0.00;0.00;;;;;;;10.22;100.00;101406.13;6220657;23;20015;-74
2022/11/12 03:49:49;;;;;;;0.10;0.10;;;;;;;10.25;100.00;101391.13;6246934;22;20253;-74
2022/11/12 03:52:15;;;;;;;0.00;0.00;;;;;;;10.31;100.00;101388.28;6250882;22;20055;-76
2022/11/12 03:55:45;;;;;;;0.00;0.00;;;;;;;10.48;100.00;101402.06;6227915;22;20007;-75
2022/11/12 03:58:12;;;;;;;0.00;0.00;;;;;;;10.51;100.00;101400.72;6160847;23;20009;-75
2022/11/12 04:00:40;;;;;;;0.00;0.00;;;;;;;10.60;100.00;101392.97;6157262;23;20009;-75
2022/11/12 04:03:09;;;;;;;0.00;0.00;;;;;;;10.72;100.00;101412.09;6221684;22;20003;-76
2022/11/12 04:08:37;;;;;;;0.00;0.00;;;;;;;10.73;100.00;101392.72;6256356;22;20041;-75
2022/11/12 04:11:13;;;;;;;0.00;0.00;;;;;;;10.83;100.00;101400.28;6249889;22;19998;-76
2022/11/12 04:13:41;;;;;;;0.00;0.00;;;;;;;10.90;100.00;101397.41;6279445;22;19999;-76
2022/11/12 04:22:07;;;;;;;0.00;0.00;;;;;;;10.92;100.00;101387.88;6272837;22;20065;-76
2022/11/12 04:27:21;;;;;;;0.00;0.00;;;;;;;11.04;100.00;101392.47;6276354;22;20446;-75
2022/11/12 04:32:37;;;;;;;0.00;0.00;;;;;;;11.00;100.00;101390.22;6278137;22;20061;-76
2022/11/12 04:35:07;;;;;;;0.00;0.00;;;;;;;11.04;100.00;101397.94;6253975;22;20091;-75
2022/11/12 04:37:43;;;;;;;0.00;0.00;;;;;;;11.06;100.00;101406.75;6245203;22;19999;-76
2022/11/12 04:45:47;;;;;;;0.00;0.00;;;;;;;11.13;100.00;101391.00;6277855;22;20060;-75
2022/11/12 04:48:12;;;;;;;0.00;0.00;;;;;;;11.12;100.00;101389.34;6247504;22;19999;-75
2022/11/12 04:50:50;;;;;;;0.00;0.00;;;;;;;11.11;100.00;101383.03;6198565;22;20018;-77
2022/11/12 04:53:16;;;;;;;0.00;0.00;;;;;;;11.12;100.00;101378.38;6248579;22;20045;-75
2022/11/12 04:55:41;;;;;;;0.00;0.00;;;;;;;11.17;100.00;101386.69;6198870;22;20003;-75
2022/11/12 04:58:09;;;;;;;0.00;0.00;;;;;;;11.17;100.00;101386.69;6247808;22;20007;-75
2022/11/12 05:00:35;;;;;;;0.00;0.00;;;;;;;11.16;100.00;101387.78;6224212;22;20011;-74
2022/11/12 05:03:00;;;;;;;0.00;0.00;;;;;;;11.13;100.00;101385.53;6223989;22;20007;-74
2022/11/12 05:05:36;;;;;;;;;;;;;;;;;;;;;
2022/11/12 05:08:05;;;;;;;0.00;0.00;;;;;;;11.16;100.00;101385.03;6252780;22;20051;-76
2022/11/12 05:10:30;;;;;;;0.00;0.00;;;;;;;11.21;100.00;101378.81;6277005;22;20307;-76
2022/11/12 05:12:56;;;;;;;0.00;0.00;;;;;;;11.20;100.00;101369.78;6225007;22;20149;-75
2022/11/12 05:15:22;;;;;;;0.00;0.00;;;;;;;11.21;100.00;101371.41;6249078;22;20008;-75
2022/11/12 05:17:56;;;;;;;0.00;0.00;;;;;;;11.25;100.00;101369.84;6253010;22;20003;-76
2022/11/12 05:20:22;;;;;;;0.00;0.00;;;;;;;11.27;100.00;101370.44;6227224;22;20008;-75
2022/11/12 05:22:47;;;;;;;0.00;0.00;;;;;;;11.27;100.00;101364.13;6203880;22;20012;-77
2022/11/12 05:25:13;;;;;;;0.00;0.00;;;;;;;11.31;100.00;101365.28;6253889;22;20422;-77
2022/11/12 05:27:38;;;;;;;0.00;0.00;;;;;;;11.31;100.00;101355.16;6224402;22;20011;-76
2022/11/12 05:30:04;;;;;;;0.00;0.00;;;;;;;11.33;100.00;101353.03;6228245;22;20015;-76
2022/11/12 05:32:30;;;;;;;0.00;0.00;;;;;;;11.38;100.00;101355.00;6251864;22;20073;-76
2022/11/12 05:34:58;;;;;;;0.00;0.00;;;;;;;11.42;100.00;101358.06;6253364;22;20015;-74
2022/11/12 05:37:33;;;;;;;0.00;0.00;;;;;;;11.38;100.00;101354.19;6225470;22;20004;-77
2022/11/12 05:40:18;;;;;;;0.00;0.00;;;;;;;11.36;100.00;101340.75;6258361;22;20012;-76
2022/11/12 05:42:47;;;;;;;0.00;0.00;;;;;;;11.41;100.00;101353.69;6246302;23;20031;-77
2022/11/12 05:45:12;;;;;;;0.00;0.00;;;;;;;11.35;100.00;101350.84;6250415;23;20010;-78
2022/11/12 05:47:38;;;;;;;0.00;0.00;;;;;;;11.38;100.00;101359.66;6251828;23;20004;-75
2022/11/12 05:50:04;;;;;;;0.00;0.00;;;;;;;11.33;100.00;101353.03;6246896;23;20326;-76
2022/11/12 05:52:29;;;;;;;0.00;0.00;;;;;;;11.38;100.00;101362.41;6248487;22;20031;-75
2022/11/12 05:54:54;;;;;;;0.00;0.00;;;;;;;11.38;100.00;101362.41;6245432;23;20051;-74
2022/11/12 05:57:22;;;;;;;0.00;0.00;;;;;;;11.35;100.00;101363.72;6248079;23;20091;-76
2022/11/12 05:59:48;;;;;;;0.00;0.00;;;;;;;11.32;100.00;101356.00;6244893;23;20355;-75
2022/11/12 06:02:13;;;;;;;0.00;0.00;;;;;;;11.30;100.00;101359.00;6223847;23;20224;-75
2022/11/12 06:04:41;;;;;;;0.00;0.00;;;;;;;11.30;100.00;101364.47;6249986;23;20429;-74
2022/11/12 06:07:07;;;;;;;0.00;0.00;;;;;;;11.31;100.00;101366.13;6197995;23;20072;-76
2022/11/12 06:09:32;;;;;;;0.00;0.00;;;;;;;11.33;100.00;101369.44;6248718;23;20331;-75
2022/11/12 06:11:58;;;;;;;0.05;0.05;;;;;;;11.37;100.00;101369.78;6244180;23;20022;-74
2022/11/12 06:14:23;;;;;;;0.00;0.00;;;;;;;11.41;100.00;101370.13;6220817;23;20008;-75
2022/11/12 06:16:48;;;;;;;0.00;0.00;;;;;;;11.38;100.00;101356.94;6217406;23;20042;-75
2022/11/12 06:19:14;;;;;;;0.00;0.00;;;;;;;11.44;100.00;101369.63;6221173;23;20008;-76
2022/11/12 06:21:39;;;;;;;0.00;0.00;;;;;;;11.45;100.00;101363.06;6249950;23;20335;-75
2022/11/12 06:24:05;;;;;;;0.00;0.00;;;;;;;11.52;100.00;101371.94;6218438;23;20007;-76
2022/11/12 06:26:30;;;;;;;0.00;0.00;;;;;;;11.51;100.00;101359.34;6247275;23;20004;-75
2022/11/12 06:28:56;;;;;;;0.00;0.00;;;;;;;11.57;100.00;101363.81;6195368;23;20008;-76
2022/11/12 06:31:21;;;;;;;0.00;0.00;;;;;;;11.58;100.00;101362.72;6221874;23;20031;-76
2022/11/12 06:33:48;;;;;;;0.00;0.00;;;;;;;11.56;100.00;101362.13;6246340;23;20008;-75
2022/11/12 06:36:16;;;;;;;0.00;0.00;;;;;;;11.60;100.00;101374.25;6246656;23;20015;-74
2022/11/12 06:38:42;;;;;;;0.00;0.00;;;;;;;11.63;100.00;101378.41;6247553;23;20019;-74
2022/11/12 06:41:12;;;;;;;0.00;0.00;;;;;;;11.62;100.00;101383.06;6242945;23;20012;-75
2022/11/12 06:43:38;;;;;;;0.00;0.00;;;;;;;11.64;100.00;101383.66;6222246;23;20382;-75
2022/11/12 06:46:21;;;;;;;0.00;0.00;;;;;;;11.66;100.00;101389.69;6223459;23;20012;-76
2022/11/12 06:48:47;;;;;;;0.00;0.00;;;;;;;11.65;100.00;101382.56;6249545;23;20127;-76
2022/11/12 06:51:18;;;;;;;0.38;0.38;;;;;;;11.66;100.00;101384.22;6248833;23;20004;-74
2022/11/12 06:53:44;;;;;;;0.00;0.00;;;;;;;11.69;100.00;101402.06;6255496;22;20003;-74
2022/11/12 06:56:15;;;;;;;0.00;0.00;;;;;;;11.62;100.00;101387.69;6255127;22;20008;-76
2022/11/12 06:58:41;;;;;;;0.00;0.00;;;;;;;11.71;100.00;101397.19;6250544;22;20075;-76
2022/11/12 07:01:14;;;;;;;0.10;0.10;;;;;;;11.70;100.00;101390.03;6253603;22;20003;-75
2022/11/12 07:03:41;;;;;;;0.00;0.00;;;;;;;11.78;100.00;101407.97;6276841;22;20011;-74
2022/11/12 07:06:12;;;;;;;0.00;0.00;;;;;;;11.79;100.00;101398.66;6251945;22;20004;-75
2022/11/12 07:08:48;;;;;;;0.00;0.00;;;;;;;11.83;100.00;101410.78;6248961;22;20086;-75
2022/11/12 07:11:14;;;;;;;0.00;0.00;;;;;;;11.84;100.00;101412.44;6252900;22;20007;-75
2022/11/12 07:13:39;;;;;;;0.00;0.00;;;;;;;11.83;100.00;101421.75;6222990;22;20783;-77
2022/11/12 07:16:09;;;;;;;0.00;0.00;;;;;;;11.84;100.00;101409.69;6229205;22;20018;-77
2022/11/12 07:18:35;;;;;;;0.00;0.00;;;;;;;11.88;100.00;101408.13;6251416;22;20007;-78
2022/11/12 07:21:07;;;;;;;0.00;0.00;;;;;;;11.90;100.00;101411.44;6254713;22;19998;-76
2022/11/12 07:23:34;;;;;;;0.00;0.00;;;;;;;11.90;100.00;101410.59;6251243;22;19996;-75
2022/11/12 07:26:02;;;;;;;0.00;0.00;;;;;;;11.93;100.00;101405.50;6250841;22;20026;-76
2022/11/12 07:28:28;;;;;;;0.00;0.00;;;;;;;11.91;100.00;101407.63;6256779;22;20082;-76
2022/11/12 07:31:24;;;;;;;0.00;0.00;;;;;;;11.88;100.00;101397.16;6277723;22;20085;-76
2022/11/12 07:33:52;;;;;;;0.00;0.00;;;;;;;11.96;100.00;101406.88;6277867;22;20004;-76
2022/11/12 07:36:19;;;;;;;0.00;0.00;;;;;;;12.03;100.00;101415.75;6283119;22;20024;-76
2022/11/12 07:38:46;;;;;;;0.00;0.00;;;;;;;12.13;100.00;101426.06;6230196;22;20004;-76
2022/11/12 07:41:14;;;;;;;0.00;0.00;;;;;;;12.18;100.00;101434.38;6226176;22;20365;-75
2022/11/12 07:43:41;;;;;;;0.00;0.00;;;;;;;12.19;100.00;101425.91;6281132;22;20007;-76
2022/11/12 07:46:16;;;;;;;0.00;0.00;;;;;;;12.28;100.00;101440.00;6254545;22;20004;-77
2022/11/12 07:48:50;;;;;;;;;;;;;;;12.36;100.00;101441.47;6257149;22;20011;-77
2022/11/12 07:51:24;;;;;;;0.00;0.00;;;;;;;12.39;100.00;101447.25;6283051;22;19903;-76
2022/11/12 07:53:55;;;;;;;0.00;0.00;;;;;;;12.45;100.00;101439.13;6259203;22;20692;-77
2022/11/12 07:56:22;;;;;;;0.00;0.00;;;;;;;12.52;100.00;101439.78;6255772;22;20027;-77
2022/11/12 07:58:49;;;;;;;0.00;0.00;;;;;;;12.56;100.00;101440.94;6257530;22;20014;-77
2022/11/12 08:01:33;;;;;;;0.00;0.00;;;;;;;12.66;100.00;101449.28;6254673;22;20719;-77
2022/11/12 08:04:11;;;;;;;0.00;0.00;;;;;;;12.72;100.00;101451.00;6257977;22;20010;-77
2022/11/12 08:06:37;;;;;;;0.00;0.00;;;;;;;12.78;100.00;101442.84;6255814;22;20067;-77
2022/11/12 08:09:05;;;;;;;0.00;0.00;;;;;;;12.85;100.00;101432.47;6256489;22;20033;-75
2022/11/12 08:11:35;;;;;;;0.00;0.00;;;;;;;12.88;100.00;101440.22;6283445;22;19999;-73
2022/11/12 08:14:04;;;;;;;0.05;0.05;;;;;;;12.88;100.00;101430.06;6256544;22;19995;-77
2022/11/12 08:16:29;;;;;;;0.00;0.00;;;;;;;12.89;100.00;101428.13;6228961;22;20091;-71
2022/11/12 08:18:55;;;;;;;0.00;0.00;;;;;;;12.97;100.00;101435.91;6284102;22;20433;-75
2022/11/12 08:21:31;;;;;;;;;;;;;;;;;;;;;
2022/11/12 08:23:56;;;;;;;0.00;0.00;;;;;;;12.96;100.00;101441.66;6284507;22;20015;-74
2022/11/12 08:26:26;;;;;;;0.00;0.00;;;;;;;12.87;100.00;101424.81;6208470;22;20014;-76
2022/11/12 08:28:52;;;;;;;0.00;0.00;;;;;;;12.91;100.00;101434.22;6232830;22;20067;-73
2022/11/12 08:31:28;;;;;;;0.00;0.00;;;;;;;12.92;100.00;101444.09;6230574;22;20004;-75
2022/11/12 08:33:58;;;;;;;0.00;0.00;;;;;;;12.86;100.00;101434.13;6256419;22;20018;-76
2022/11/12 08:36:23;;;;;;;0.00;0.00;;;;;;;12.86;100.00;101437.69;6230347;22;20307;-75
2022/11/12 08:39:33;;;;;;;;;;;;;;;;;;;;;
2022/11/12 08:42:02;;;;;;;0.00;0.00;;;;;;;12.98;100.00;101421.13;6284759;22;20039;-76
2022/11/12 08:44:28;;;;;;;0.00;0.00;;;;;;;13.14;100.00;101429.50;6283457;22;20003;-75
2022/11/12 08:46:53;;;;;;;0.00;0.00;;;;;;;13.23;100.00;101431.53;6209338;22;20019;-76
2022/11/12 08:49:19;;;;;;;0.00;0.00;;;;;;;13.24;100.00;101435.09;6258683;22;20065;-76
2022/11/12 08:52:01;;;;;;;0.00;0.00;;;;;;;13.26;100.00;101425.50;6256218;22;20007;-76
2022/11/12 08:54:50;;;;;;;0.00;0.00;;;;;;;13.29;100.00;101435.16;6257505;22;20015;-76
2022/11/12 08:57:19;;;;;;;0.00;0.00;;;;;;;13.38;100.00;101439.13;6140713;23;20080;-77
2022/11/12 08:59:52;;;;;;;0.00;0.00;;;;;;;13.39;100.00;101432.53;6220689;22;20031;-79
2022/11/12 09:02:44;;;;;;;;;;;;;;;;;;;;;
2022/11/12 09:05:12;;;;;;;0.00;0.00;;;;;;;13.57;100.00;101436.81;6264788;22;20061;-78
2022/11/12 09:07:40;;;;;;;0.00;0.00;;;;;;;13.57;100.00;101422.25;6261465;22;20014;-77
2022/11/12 09:10:11;;;;;;;0.00;0.00;;;;;;;13.62;100.00;101419.53;6258284;22;20004;-76
2022/11/12 09:12:37;;;;;;;0.00;0.00;;;;;;;13.76;100.00;101426.25;6258195;22;20014;-78
2022/11/12 09:15:06;;;;;;;0.00;0.00;;;;;;;13.84;100.00;101424.94;6208926;22;20012;-77
2022/11/12 09:17:34;;;;;;;0.00;0.00;;;;;;;14.07;100.00;101422.91;6233998;22;20011;-77
2022/11/12 09:20:01;;;;;;;0.00;0.00;;;;;;;14.26;100.00;101415.03;6234885;22;20060;-77
2022/11/12 09:22:38;;;;;;;0.00;0.00;;;;;;;14.58;100.00;101427.84;6230734;22;20031;-78
2022/11/12 09:25:07;;;;;;;0.00;0.00;;;;;;;14.90;100.00;101415.88;6261590;22;20061;-77
2022/11/12 09:27:32;;;;;;;0.00;0.00;;;;;;;15.31;100.00;101415.97;6258868;22;20490;-77
2022/11/12 09:29:58;;;;;;;0.00;0.00;;;;;;;15.73;100.00;101428.66;6263021;22;20003;-79
2022/11/12 09:32:23;;;;;;;0.00;0.00;;;;;;;15.76;100.00;101432.81;6259642;22;20104;-78
2022/11/12 09:34:56;;;;;;;0.00;0.00;;;;;;;15.66;100.00;101433.63;6210853;22;20063;-77
2022/11/12 09:37:21;;;;;;;0.00;0.00;;;;;;;15.80;100.00;101423.72;6235618;22;20016;-77
2022/11/12 09:39:47;;;;;;;0.00;0.00;;;;;;;15.71;100.00;101423.44;6239184;22;20008;-77
2022/11/12 09:42:15;;;;;;;0.00;0.00;;;;;;;15.67;100.00;101418.75;6238757;22;19984;-77
2022/11/12 09:44:45;;;;;;;0.00;0.00;;;;;;;15.60;100.00;101408.00;6256861;22;20042;-77
2022/11/12 09:47:25;;;;;;;0.00;0.00;;;;;;;15.63;100.00;101412.13;6262587;22;20062;-77
2022/11/12 09:49:56;;;;;;;0.00;0.00;;;;;;;15.53;100.00;101422.03;6257549;22;20554;-78
2022/11/12 09:52:28;;;;;;;0.00;0.00;;;;;;;15.43;100.00;101422.03;6259488;22;20046;-79
2022/11/12 09:55:07;;;;;;;0.30;0.30;;;;;;;15.51;100.00;101431.69;6259186;22;20043;-78
2022/11/12 09:57:35;;;;;;;0.00;0.00;;;;;;;15.57;100.00;101418.75;6262427;22;20075;-77
2022/11/12 10:00:02;;;;;;;0.00;0.00;;;;;;;15.56;100.00;101417.09;6288283;22;20070;-78
2022/11/12 10:02:55;;;;;;;0.00;0.00;;;;;;;15.45;100.00;101422.59;6262097;22;20461;-77
2022/11/12 10:05:24;;;;;;;0.00;0.00;;;;;;;15.54;100.00;101420.94;6259912;22;20004;-77
2022/11/12 10:07:56;;;;;;;0.00;0.00;;;;;;;15.49;100.00;101429.22;6262326;22;20023;-77
2022/11/12 10:10:31;;;;;;;0.00;0.00;;;;;;;15.34;100.00;101423.69;6261144;22;20073;-78
2022/11/12 10:13:18;;;;;;;0.00;0.00;;;;;;;15.28;100.00;101416.53;6263348;22;19995;-77
2022/11/12 10:19:13;;;;;;;0.00;0.00;;;;;;;15.31;100.00;101421.47;6289209;22;20042;-78
2022/11/12 10:22:06;;;;;;;0.00;0.00;;;;;;;15.45;100.00;101433.63;6266383;22;20014;-78
2022/11/12 10:24:36;;;;;;;0.00;0.00;;;;;;;15.82;100.00;101429.78;6264941;22;20385;-76
2022/11/12 10:27:35;;;;;;;0.00;0.00;;;;;;;15.96;100.00;101426.47;6261783;22;20004;-77
2022/11/12 10:30:12;;;;;;;0.00;0.00;;;;;;;16.19;100.00;101420.38;6261996;22;20011;-77
2022/11/12 10:32:42;;;;;;;0.00;0.00;;;;;;;16.83;100.00;101431.72;6259973;22;20067;-77
2022/11/12 10:35:09;;;;;;;0.00;0.00;;;;;;;17.97;100.00;101445.63;6260092;22;20019;-76
2022/11/12 10:37:55;;;;;;;0.00;0.00;;;;;;;19.79;100.00;101431.91;6210763;22;19991;-78
2022/11/12 10:40:21;;;;;;;0.00;0.00;;;;;;;21.50;100.00;101430.06;6263382;22;20315;-78
2022/11/12 10:43:19;;;;;;;0.00;0.00;;;;;;;26.38;100.00;101436.84;6261141;22;20059;-78
2022/11/12 10:45:49;;;;;;;0.00;0.00;;;;;;;26.70;100.00;101439.91;6264853;22;20010;-77
2022/11/12 10:48:36;;;;;;;0.00;0.00;;;;;;;28.45;100.00;101436.81;6262661;22;20011;-77
2022/11/12 10:51:28;;;;;;;0.00;0.00;;;;;;;30.22;100.00;101435.69;6263172;22;20004;-77
2022/11/12 10:53:57;;;;;;;0.00;0.00;;;;;;;31.34;100.00;101432.53;6291010;22;20007;-77
2022/11/12 10:56:27;;;;;;;0.00;0.00;;;;;;;31.08;100.00;101430.59;6262722;22;20003;-78
2022/11/12 10:59:17;;;;;;;0.00;0.00;;;;;;;30.28;99.31;101439.84;6239090;22;20026;-78
2022/11/12 11:01:53;;;;;;;0.00;0.00;;;;;;;26.56;100.00;101429.84;6261287;22;20029;-75
2022/11/12 11:04:31;;;;;;;0.00;0.00;;;;;;;24.85;100.00;101412.94;6264017;22;20082;-77
2022/11/12 11:07:20;;;;;;;0.00;0.00;;;;;;;26.11;100.00;101419.53;6261401;22;20067;-78
2022/11/12 11:09:56;;;;;;;0.10;0.10;;;;;;;29.69;100.00;101414.59;6291132;22;20007;-77
2022/11/12 11:12:26;;;;;;;0.00;0.00;;;;;;;31.24;99.93;101416.28;6263047;22;20010;-78
2022/11/12 11:15:17;;;;;;;0.00;0.00;;;;;;;32.16;95.25;101412.03;6264333;22;20019;-78
2022/11/12 11:17:45;;;;;;;0.00;0.00;;;;;;;35.25;87.32;101408.22;6265276;22;19995;-78
2022/11/12 11:20:46;;;;;;;0.00;0.00;;;;;;;36.62;81.44;101410.09;6263418;22;20042;-78
2022/11/12 11:24:04;;;;;;;0.00;0.00;;;;;;;36.30;80.09;101411.22;6254243;22;20062;-77
2022/11/12 11:26:38;;;;;;;0.00;0.00;;;;;;;36.81;80.55;101400.13;6288095;22;20027;-77
2022/11/12 11:29:39;;;;;;;0.00;0.00;;;;;;;38.19;75.93;101385.53;6262512;22;19992;-78
2022/11/12 11:32:13;;;;;;;0.00;0.00;;;;;;;38.74;74.76;101381.25;6229246;22;20010;-79
2022/11/12 11:34:54;;;;;;;0.00;0.00;;;;;;;38.86;71.57;101376.09;6264545;22;20023;-77
2022/11/12 11:37:29;;;;;;;0.00;0.00;;;;;;;39.03;75.77;101374.91;6261252;22;20012;-78
2022/11/12 11:40:22;;;;;;;0.00;0.00;;;;;;;39.89;69.60;101372.13;6291157;22;20426;-78
2022/11/12 11:42:56;;;;;;;0.00;0.00;;;;;;;39.02;73.19;101378.22;6262262;22;20010;-78
2022/11/12 11:45:55;;;;;;;0.08;0.08;;;;;;;38.79;74.65;101374.22;6263996;22;20012;-78
2022/11/12 11:48:42;;;;;;;0.00;0.00;;;;;;;37.44;78.40;101371.25;6290743;22;20039;-78
2022/11/12 11:51:51;;;;;;;0.00;0.00;;;;;;;37.47;72.27;101361.00;6291860;22;20011;-78
2022/11/12 11:54:57;;;;;;;0.43;0.43;;;;;;;37.09;78.91;101361.94;6265168;22;19996;-77
2022/11/12 11:57:38;;;;;;;0.00;0.00;;;;;;;37.54;82.76;101352.31;6263121;22;20008;-78
2022/11/12 12:00:19;;;;;;;0.00;0.00;;;;;;;39.79;76.30;101354.00;6262267;22;20026;-79
2022/11/12 12:02:50;;;;;;;0.00;0.00;;;;;;;40.47;70.91;101360.00;6263492;22;20003;-78
2022/11/12 12:05:55;;;;;;;0.00;0.00;;;;;;;39.44;73.13;101342.16;6262936;22;20031;-78
2022/11/12 12:09:01;;;;;;;0.30;0.28;;;;;;;38.97;76.18;101333.00;6239320;22;20015;-80
2022/11/12 12:11:55;;;;;;;0.00;0.00;;;;;;;39.50;73.92;101338.75;6263098;22;20025;-79
2022/11/12 12:14:58;;;;;;;0.00;0.00;;;;;;;39.35;78.99;101333.38;6264753;22;20031;-80
2022/11/12 12:18:37;;;;;;;;;;;;;;;;;;;;;
2022/11/12 12:21:15;;;;;;;0.00;0.00;;;;;;;41.58;72.71;101308.34;6166909;23;20024;-78
2022/11/12 12:23:57;;;;;;;0.00;0.00;;;;;;;42.11;71.92;101291.28;6260577;22;20000;-80
2022/11/12 12:27:02;;;;;;;0.00;0.00;;;;;;;42.72;70.77;101286.16;6294792;22;20098;-78
2022/11/12 12:29:56;;;;;;;;;;;;;;;;;;;;;
2022/11/12 12:33:01;;;;;;;;;;;;;;;;;;;;;
2022/11/12 12:35:32;;;;;;;0.00;0.00;;;;;;;42.76;70.67;101268.78;6291153;22;20015;-81
2022/11/12 12:38:02;;;;;;;0.00;0.00;;;;;;;42.96;70.30;101268.38;6291808;22;19996;-80
2022/11/12 12:40:36;;;;;;;0.00;0.00;;;;;;;42.22;69.04;101259.34;6265487;22;19996;-79